createdAt,value
2023-07-02T00:01:29.822Z,90
2023-07-02T00:16:29.816Z,91
2023-07-02T00:31:29.760Z,91
2023-07-02T00:46:29.753Z,91
2023-07-02T01:01:29.795Z,91
2023-07-02T01:16:29.751Z,92
2023-07-02T01:31:29.692Z,92
2023-07-02T01:46:29.728Z,92
2023-07-02T02:01:29.631Z,92
2023-07-02T02:16:29.714Z,93
2023-07-02T02:31:29.604Z,93
2023-07-02T02:46:29.570Z,93
2023-07-02T03:01:29.527Z,93
2023-07-02T03:16:29.539Z,93
2023-07-02T03:31:29.540Z,93
2023-07-02T03:46:29.510Z,93
2023-07-02T04:01:29.407Z,94
2023-07-02T04:16:29.435Z,94
2023-07-02T04:31:29.432Z,94
2023-07-02T04:46:29.472Z,94
2023-07-02T05:01:29.364Z,94
2023-07-02T05:16:29.408Z,94
2023-07-02T05:31:29.278Z,94
2023-07-02T05:46:29.276Z,95
2023-07-02T06:01:29.240Z,95
2023-07-02T06:16:29.244Z,95
2023-07-02T06:31:29.204Z,95
2023-07-02T06:46:29.258Z,95
2023-07-02T07:01:29.183Z,95
2023-07-02T07:16:29.144Z,95
2023-07-02T07:31:29.099Z,95
2023-07-02T07:46:29.156Z,94
2023-07-02T08:01:29.133Z,93
2023-07-02T08:16:29.030Z,89
2023-07-02T08:31:29.052Z,90
2023-07-02T08:46:29.027Z,88
2023-07-02T09:01:28.970Z,88
2023-07-02T09:16:29.686Z,88
2023-07-02T09:31:28.951Z,86
2023-07-02T09:46:28.925Z,85
2023-07-02T10:01:28.843Z,84
2023-07-02T10:16:28.856Z,80
2023-07-02T10:31:28.814Z,75
2023-07-02T10:46:28.813Z,72
2023-07-02T11:01:28.766Z,70
2023-07-02T11:16:28.759Z,70
2023-07-02T11:31:31.055Z,70
2023-07-02T11:46:28.739Z,69
2023-07-02T12:01:28.615Z,67
2023-07-02T12:16:28.655Z,67
2023-07-02T12:31:28.625Z,66
2023-07-02T12:46:28.605Z,66
2023-07-02T13:01:28.564Z,65
2023-07-02T13:16:28.557Z,63
2023-07-02T13:31:28.469Z,63
2023-07-02T13:46:28.558Z,63
2023-07-02T14:01:28.450Z,62
2023-07-02T14:16:28.473Z,62
2023-07-02T14:31:28.371Z,61
2023-07-02T14:46:28.424Z,59
2023-07-02T15:01:28.335Z,59
2023-07-02T15:16:28.320Z,59
2023-07-02T15:31:28.270Z,59
2023-07-02T15:46:28.278Z,59
2023-07-02T16:01:28.163Z,59
2023-07-02T16:16:28.199Z,60
2023-07-02T16:31:28.141Z,61
2023-07-02T16:46:28.173Z,62
2023-07-02T17:01:28.140Z,62
2023-07-02T17:16:28.177Z,61
2023-07-02T17:31:28.107Z,61
2023-07-02T17:46:28.090Z,60
2023-07-02T18:01:28.095Z,59
2023-07-02T18:16:27.966Z,59
2023-07-02T18:31:27.945Z,60
2023-07-02T18:46:27.941Z,60
2023-07-02T19:01:27.905Z,61
2023-07-02T19:16:27.933Z,61
2023-07-02T19:31:27.866Z,60
2023-07-02T19:46:27.845Z,59
2023-07-02T20:01:27.780Z,58
2023-07-02T20:16:27.815Z,57
2023-07-02T20:31:27.836Z,57
2023-07-02T20:46:27.740Z,57
2023-07-02T21:01:27.682Z,56
2023-07-02T21:16:27.693Z,56
2023-07-02T21:31:27.635Z,56
2023-07-02T21:46:27.682Z,56
2023-07-02T22:01:27.597Z,57
2023-07-02T22:16:27.568Z,57
2023-07-02T22:31:27.522Z,58
2023-07-02T22:46:27.647Z,58
2023-07-02T23:01:27.435Z,58
2023-07-02T23:16:27.460Z,58
2023-07-02T23:31:27.622Z,59
2023-07-02T23:46:27.457Z,59
